Time;durP1;ratioP1;P1;durP2;ratioP2;P2;SDS_P1;SDS_P2;PMS_P1;PMS_P2;Temp;Humidity;BMP_temperature;BMP_pressure;BME280_temperature;BME280_humidity;BME280_pressure;Samples;Min_cycle;Max_cycle;Signal;HPM_P1;HPM_P2
2020/12/01 00:02:27;;;;;;;15.57;8.65;;;2.10;57.80;;;;;;5051351;28;20087;-73
2020/12/01 00:04:53;;;;;;;12.65;7.30;;;2.10;57.90;;;;;;5053578;28;20413;-73
2020/12/01 00:07:19;;;;;;;15.65;7.97;;;2.10;57.80;;;;;;5053270;28;20096;-74
2020/12/01 00:09:44;;;;;;;15.15;8.68;;;2.10;57.90;;;;;;5052144;28;20025;-73
2020/12/01 00:12:11;;;;;;;18.42;8.90;;;2.10;58.00;;;;;;5051893;28;20025;-73
2020/12/01 00:14:37;;;;;;;19.05;10.70;;;2.10;58.20;;;;;;5052282;28;20078;-74
2020/12/01 00:17:03;;;;;;;14.95;8.50;;;2.10;58.30;;;;;;5053509;28;20036;-74
2020/12/01 00:19:28;;;;;;;15.02;8.30;;;2.00;58.20;;;;;;5051827;28;20082;-74
2020/12/01 00:21:54;;;;;;;15.77;8.90;;;2.00;58.20;;;;;;5053932;28;20045;-73
2020/12/01 00:24:20;;;;;;;14.27;7.50;;;2.00;58.30;;;;;;5052985;28;20429;-78
2020/12/01 00:26:46;;;;;;;19.27;8.00;;;2.00;58.30;;;;;;5051734;28;20025;-69
2020/12/01 00:29:12;;;;;;;16.40;8.43;;;2.00;58.20;;;;;;5053453;28;20035;-69
2020/12/01 00:31:44;;;;;;;16.92;8.15;;;2.00;58.30;;;;;;5053702;28;20025;-68
2020/12/01 00:34:15;;;;;;;14.80;7.55;;;2.00;58.30;;;;;;5072814;28;20024;-69
2020/12/01 00:36:41;;;;;;;13.27;6.75;;;2.00;58.30;;;;;;5062162;28;20025;-70
2020/12/01 00:39:09;;;;;;;13.65;8.15;;;2.00;58.30;;;;;;5052674;28;20033;-69
2020/12/01 00:41:35;;;;;;;16.27;7.63;;;2.00;58.30;;;;;;5052882;28;20017;-70
2020/12/01 00:44:03;;;;;;;14.32;8.05;;;2.00;58.40;;;;;;5050794;28;20021;-69
2020/12/01 00:46:29;;;;;;;17.58;8.70;;;2.00;58.30;;;;;;5052814;28;20027;-69
2020/12/01 00:48:56;;;;;;;19.42;9.50;;;2.00;58.40;;;;;;5052825;28;20084;-69
2020/12/01 00:51:23;;;;;;;16.70;8.75;;;2.00;58.50;;;;;;5052917;28;20082;-69
2020/12/01 00:53:49;;;;;;;13.85;7.45;;;2.00;58.50;;;;;;5052420;28;20023;-69
2020/12/01 00:56:22;;;;;;;15.40;8.77;;;2.00;58.40;;;;;;5052874;28;20478;-69
2020/12/01 00:58:51;;;;;;;14.85;7.93;;;1.90;58.50;;;;;;5052888;28;20029;-69
2020/12/01 01:01:18;;;;;;;14.05;6.72;;;2.00;58.50;;;;;;5052876;28;20032;-69
2020/12/01 01:03:44;;;;;;;13.40;7.43;;;1.90;58.40;;;;;;5052855;28;20025;-69
2020/12/01 01:06:11;;;;;;;15.77;8.18;;;1.90;58.40;;;;;;5052570;28;20093;-69
2020/12/01 01:08:39;;;;;;;18.83;9.70;;;1.90;58.50;;;;;;5052512;28;20051;-69
2020/12/01 01:11:06;;;;;;;18.55;9.55;;;1.90;58.60;;;;;;5052435;28;20036;-70
2020/12/01 01:13:32;;;;;;;14.93;8.68;;;1.90;58.80;;;;;;5051446;28;20410;-70
2020/12/01 01:16:00;;;;;;;13.63;8.35;;;1.90;58.70;;;;;;5052100;28;20100;-69
2020/12/01 01:18:25;;;;;;;13.23;6.93;;;1.90;58.70;;;;;;5052462;28;20028;-69
2020/12/01 01:20:51;;;;;;;19.65;8.43;;;1.90;58.70;;;;;;5052316;28;20036;-69
2020/12/01 01:23:17;;;;;;;14.00;8.57;;;1.90;58.60;;;;;;5051931;28;20056;-69
2020/12/01 01:25:43;;;;;;;19.95;10.15;;;1.90;58.60;;;;;;5052400;28;20052;-69
2020/12/01 01:28:08;;;;;;;20.90;9.77;;;1.90;58.70;;;;;;5052544;28;20025;-69
2020/12/01 01:30:36;;;;;;;18.30;9.93;;;1.80;58.60;;;;;;5052512;28;20032;-68
2020/12/01 01:33:01;;;;;;;16.20;8.43;;;1.80;58.70;;;;;;5052264;28;20490;-69
2020/12/01 01:35:27;;;;;;;18.67;9.57;;;1.80;58.60;;;;;;5052176;28;20059;-69
2020/12/01 01:37:53;;;;;;;21.33;9.00;;;1.80;58.70;;;;;;5064115;28;20036;-69
2020/12/01 01:40:25;;;;;;;18.90;10.18;;;1.80;58.70;;;;;;5072574;28;20025;-69
2020/12/01 01:42:51;;;;;;;20.88;10.82;;;1.80;58.70;;;;;;5056145;28;20032;-69
2020/12/01 01:45:40;;;;;;;23.90;11.45;;;1.70;58.80;;;;;;5052200;28;20115;-69
2020/12/01 01:48:24;;;;;;;18.35;11.45;;;1.70;58.90;;;;;;5050886;28;20533;-69
2020/12/01 01:50:59;;;;;;;24.00;10.82;;;1.70;59.00;;;;;;5052517;28;20033;-69
2020/12/01 01:53:24;;;;;;;17.08;9.85;;;1.70;58.90;;;;;;5055674;28;20028;-69
2020/12/01 01:55:57;;;;;;;16.65;9.00;;;1.70;58.80;;;;;;5072291;28;20482;-69
2020/12/01 01:58:28;;;;;;;20.48;10.60;;;1.70;58.80;;;;;;5072429;28;20104;-69
2020/12/01 02:01:20;;;;;;;21.42;10.75;;;1.70;58.90;;;;;;5072295;28;20142;-69
2020/12/01 02:03:51;;;;;;;17.00;9.02;;;1.70;58.90;;;;;;5072196;28;20050;-67
2020/12/01 02:06:42;;;;;;;17.20;9.32;;;1.70;58.90;;;;;;5076124;28;20039;-68
2020/12/01 02:09:21;;;;;;;16.33;8.98;;;1.70;58.90;;;;;;5072986;28;20131;-68
2020/12/01 02:11:49;;;;;;;17.00;8.63;;;1.60;58.90;;;;;;5064810;28;20402;-68
2020/12/01 02:14:24;;;;;;;18.80;9.95;;;1.60;58.90;;;;;;5055999;28;20025;-68
2020/12/01 02:16:58;;;;;;;13.82;8.73;;;1.60;59.00;;;;;;5074090;28;20020;-67
2020/12/01 02:19:29;;;;;;;20.67;10.52;;;1.60;59.00;;;;;;5058076;28;20032;-67
2020/12/01 02:21:57;;;;;;;20.30;9.82;;;1.60;59.00;;;;;;5034190;28;20556;-68
2020/12/01 02:24:27;;;;;;;16.58;9.23;;;1.60;59.10;;;;;;5033300;28;20025;-68
2020/12/01 02:26:56;;;;;;;15.35;8.68;;;1.50;59.00;;;;;;5054544;28;20013;-68
2020/12/01 02:29:25;;;;;;;22.27;10.25;;;1.50;59.00;;;;;;5055708;28;20025;-68
2020/12/01 02:31:51;;;;;;;20.08;9.63;;;1.50;59.10;;;;;;5055650;28;20025;-68
2020/12/01 02:34:22;;;;;;;17.95;9.32;;;1.50;59.10;;;;;;5055507;28;20108;-67
2020/12/01 02:36:47;;;;;;;13.25;8.07;;;1.50;59.20;;;;;;5055405;28;20032;-68
2020/12/01 02:39:18;;;;;;;15.43;8.55;;;1.50;59.10;;;;;;5055468;28;20025;-68
2020/12/01 02:41:44;;;;;;;14.85;8.15;;;1.50;59.20;;;;;;5055605;28;20033;-68
2020/12/01 02:44:09;;;;;;;17.42;8.73;;;1.50;59.10;;;;;;5053920;28;20072;-68
2020/12/01 02:46:37;;;;;;;15.10;8.55;;;1.50;59.10;;;;;;5069279;28;20028;-68
2020/12/01 02:49:07;;;;;;;21.90;9.90;;;1.50;59.10;;;;;;5075429;28;20107;-68
2020/12/01 02:51:34;;;;;;;17.27;9.90;;;1.40;59.20;;;;;;5075352;28;20405;-68
2020/12/01 02:54:00;;;;;;;19.20;10.65;;;1.40;59.20;;;;;;5073952;28;20024;-68
2020/12/01 02:56:27;;;;;;;20.92;9.48;;;1.40;59.20;;;;;;5075506;28;20052;-68
2020/12/01 02:58:53;;;;;;;14.32;8.23;;;1.40;59.20;;;;;;5049590;28;20022;-68
2020/12/01 03:01:19;;;;;;;19.10;9.52;;;1.40;59.20;;;;;;5070305;28;20025;-68
2020/12/01 03:03:46;;;;;;;17.30;9.57;;;1.40;59.20;;;;;;5054244;28;20630;-68
2020/12/01 03:06:17;;;;;;;20.63;10.65;;;1.40;59.20;;;;;;5054452;28;20036;-68
2020/12/01 03:08:43;;;;;;;20.70;10.77;;;1.40;59.30;;;;;;5054425;28;20493;-68
2020/12/01 03:11:09;;;;;;;16.88;8.80;;;1.40;59.30;;;;;;5054471;28;20078;-68
2020/12/01 03:13:36;;;;;;;19.38;8.23;;;1.40;59.30;;;;;;5048698;28;20497;-68
2020/12/01 03:16:07;;;;;;;20.83;10.30;;;1.40;59.20;;;;;;5033570;28;20041;-68
2020/12/01 03:18:33;;;;;;;18.52;9.20;;;1.30;59.20;;;;;;5032955;28;20140;-69
2020/12/01 03:20:58;;;;;;;22.65;9.80;;;1.30;59.40;;;;;;5034587;28;20100;-69
2020/12/01 03:23:24;;;;;;;19.23;9.88;;;1.30;59.30;;;;;;5032516;28;20045;-68
2020/12/01 03:25:50;;;;;;;20.05;9.00;;;1.30;59.40;;;;;;5043746;28;20363;-68
2020/12/01 03:28:16;;;;;;;17.30;8.32;;;1.40;59.40;;;;;;5054705;28;20412;-68
2020/12/01 03:30:42;;;;;;;17.90;9.55;;;1.30;59.30;;;;;;5054841;28;20116;-68
2020/12/01 03:33:08;;;;;;;19.95;10.25;;;1.40;59.40;;;;;;5054505;28;20095;-68
2020/12/01 03:35:34;;;;;;;18.45;11.13;;;1.30;59.40;;;;;;5064850;28;20028;-69
2020/12/01 03:38:00;;;;;;;18.73;10.27;;;1.30;59.80;;;;;;5074328;28;20020;-68
2020/12/01 03:40:26;;;;;;;21.27;9.50;;;1.30;59.60;;;;;;5058487;28;20021;-68
2020/12/01 03:42:52;;;;;;;15.18;8.52;;;1.30;59.50;;;;;;5052764;28;20397;-68
2020/12/01 03:45:18;;;;;;;25.70;12.82;;;1.30;59.50;;;;;;5054672;28;20053;-69
2020/12/01 03:47:43;;;;;;;25.35;13.73;;;1.30;59.50;;;;;;5054569;28;20032;-68
2020/12/01 03:50:11;;;;;;;23.70;12.27;;;1.30;59.60;;;;;;5054947;28;20504;-68
2020/12/01 03:52:37;;;;;;;25.85;13.77;;;1.30;59.70;;;;;;5054035;28;20115;-68
2020/12/01 03:55:04;;;;;;;19.08;10.02;;;1.30;59.60;;;;;;5053988;28;20451;-68
2020/12/01 03:57:40;;;;;;;20.88;10.73;;;1.30;59.70;;;;;;5053892;28;20394;-68
2020/12/01 04:00:07;;;;;;;24.55;12.00;;;1.30;59.60;;;;;;5052787;28;20424;-68
2020/12/01 04:02:32;;;;;;;20.08;10.93;;;1.30;59.60;;;;;;5054153;28;20478;-69
2020/12/01 04:04:58;;;;;;;19.80;10.50;;;1.30;59.70;;;;;;5053721;28;20048;-68
2020/12/01 04:07:24;;;;;;;23.60;11.55;;;1.30;59.80;;;;;;5052214;28;20042;-68
2020/12/01 04:09:50;;;;;;;21.58;11.57;;;1.30;59.80;;;;;;5052852;28;20052;-69
2020/12/01 04:12:16;;;;;;;21.52;10.45;;;1.30;59.90;;;;;;5052448;28;20474;-68
2020/12/01 04:14:42;;;;;;;17.95;10.07;;;1.30;59.90;;;;;;5053739;28;20033;-69
2020/12/01 04:17:07;;;;;;;18.92;9.80;;;1.20;59.80;;;;;;5065802;28;20032;-68
2020/12/01 04:19:33;;;;;;;21.75;12.13;;;1.20;59.80;;;;;;5073556;28;20032;-68
2020/12/01 04:21:59;;;;;;;19.15;10.70;;;1.30;59.90;;;;;;5073372;28;20386;-69
2020/12/01 04:24:25;;;;;;;18.45;10.05;;;1.30;60.00;;;;;;5061222;28;20467;-69
2020/12/01 04:26:50;;;;;;;18.00;9.77;;;1.20;59.90;;;;;;5030192;28;20491;-68
2020/12/01 04:29:16;;;;;;;18.60;9.07;;;1.30;59.90;;;;;;5031251;28;20032;-68
2020/12/01 04:31:42;;;;;;;19.55;10.70;;;1.30;60.00;;;;;;5033012;28;20037;-68
2020/12/01 04:34:08;;;;;;;23.25;12.32;;;1.30;60.10;;;;;;5052225;28;20033;-69
2020/12/01 04:36:34;;;;;;;23.23;12.80;;;1.30;60.10;;;;;;5053189;28;20013;-68
2020/12/01 04:38:59;;;;;;;23.45;12.43;;;1.30;60.20;;;;;;5051745;28;20029;-68
2020/12/01 04:41:26;;;;;;;27.52;13.02;;;1.30;60.30;;;;;;5051790;28;20467;-68
2020/12/01 04:43:57;;;;;;;26.90;13.57;;;1.30;60.60;;;;;;5052763;28;20079;-68
2020/12/01 04:46:26;;;;;;;23.55;13.07;;;1.30;60.70;;;;;;5053215;28;20096;-68
2020/12/01 04:48:57;;;;;;;22.17;11.43;;;1.30;60.80;;;;;;5057430;28;20492;-68
2020/12/01 04:51:38;;;;;;;23.38;12.23;;;1.30;60.80;;;;;;5073331;28;20025;-68
2020/12/01 04:54:24;;;;;;;31.05;14.80;;;1.30;60.70;;;;;;5052884;28;20021;-68
2020/12/01 04:57:08;;;;;;;36.10;15.40;;;1.30;60.60;;;;;;5052995;28;20029;-68
2020/12/01 04:59:59;;;;;;;37.97;17.17;;;1.30;60.60;;;;;;5035414;28;20037;-68
2020/12/01 05:02:56;;;;;;;34.45;17.05;;;1.30;60.60;;;;;;5034000;28;20307;-68
2020/12/01 05:05:37;;;;;;;30.20;12.00;;;1.30;60.60;;;;;;5036688;28;20060;-68
2020/12/01 05:08:31;;;;;;;36.58;17.30;;;1.30;60.60;;;;;;5052695;28;20024;-68
2020/12/01 05:11:21;;;;;;;37.92;17.48;;;1.20;61.10;;;;;;5052765;28;20024;-69
2020/12/01 05:13:56;;;;;;;33.38;16.70;;;1.20;61.50;;;;;;5050806;28;20485;-68
2020/12/01 05:16:46;;;;;;;33.88;17.27;;;1.20;61.90;;;;;;5052548;28;20037;-68
2020/12/01 05:19:31;;;;;;;32.05;15.60;;;1.10;62.20;;;;;;5038165;28;20048;-68
2020/12/01 05:21:57;;;;;;;40.97;17.20;;;1.10;62.40;;;;;;5072317;28;20072;-69
2020/12/01 05:24:23;;;;;;;36.15;16.73;;;1.10;62.50;;;;;;5072644;28;20047;-68
2020/12/01 05:26:49;;;;;;;34.50;17.20;;;1.10;62.80;;;;;;5071295;28;20025;-68
2020/12/01 05:29:25;;;;;;;35.63;15.60;;;1.10;62.80;;;;;;5072510;28;20070;-68
2020/12/01 05:31:51;;;;;;;29.10;14.55;;;1.00;62.80;;;;;;5071757;28;20485;-68
2020/12/01 05:34:19;;;;;;;33.42;15.45;;;1.10;62.90;;;;;;5032493;28;20072;-68
2020/12/01 05:36:45;;;;;;;33.00;16.23;;;1.10;62.80;;;;;;5032465;28;20017;-69
2020/12/01 05:39:14;;;;;;;29.83;14.82;;;1.00;62.70;;;;;;5036287;28;20026;-68
2020/12/01 05:41:42;;;;;;;23.67;12.10;;;1.10;62.70;;;;;;5056603;28;20147;-69
2020/12/01 05:44:19;;;;;;;24.35;12.13;;;1.10;62.50;;;;;;5055114;28;20024;-68
2020/12/01 05:46:52;;;;;;;26.15;13.57;;;1.10;62.20;;;;;;5056439;28;20075;-68
2020/12/01 05:49:39;;;;;;;26.55;12.85;;;1.10;61.90;;;;;;5056379;28;20105;-69
2020/12/01 05:52:23;;;;;;;23.45;11.82;;;1.10;61.80;;;;;;5056427;28;20029;-68
2020/12/01 05:55:12;;;;;;;;;;;1.10;61.60;;;;;;5056688;28;20025;-68
2020/12/01 05:57:37;;;;;;;20.15;11.07;;;1.10;61.20;;;;;;5054816;28;19909;-68
2020/12/01 06:00:20;;;;;;;21.45;11.25;;;1.10;61.00;;;;;;5036370;28;20032;-68
2020/12/01 06:03:04;;;;;;;18.60;10.05;;;1.10;61.00;;;;;;5044092;28;20028;-68
2020/12/01 06:05:31;;;;;;;25.63;12.65;;;1.10;60.90;;;;;;5055953;28;20070;-68
2020/12/01 06:08:16;;;;;;;22.50;11.45;;;1.10;60.90;;;;;;5054708;28;20032;-68
2020/12/01 06:10:47;;;;;;;17.95;10.57;;;1.00;60.90;;;;;;5055993;28;20013;-69
2020/12/01 06:13:45;;;;;;;20.15;11.45;;;1.00;60.90;;;;;;5056096;28;20028;-68
2020/12/01 06:16:27;;;;;;;27.58;13.70;;;1.00;60.90;;;;;;5055527;28;20529;-68
2020/12/01 06:19:18;;;;;;;24.20;12.45;;;1.00;61.00;;;;;;5055451;28;20078;-68
2020/12/01 06:22:10;;;;;;;18.92;11.02;;;1.00;61.10;;;;;;5055605;28;20037;-68
2020/12/01 06:25:14;;;;;;;19.02;10.25;;;1.00;61.10;;;;;;5055601;28;20029;-68
2020/12/01 06:28:17;;;;;;;22.63;11.38;;;1.00;61.00;;;;;;5055666;28;20048;-68
2020/12/01 06:31:23;;;;;;;21.63;12.25;;;1.00;60.90;;;;;;5055639;28;20142;-68
2020/12/01 06:34:02;;;;;;;25.95;14.05;;;0.90;60.80;;;;;;5055438;28;20029;-68
2020/12/01 06:37:06;;;;;;;18.05;10.95;;;0.90;60.90;;;;;;5055575;28;20040;-68
2020/12/01 06:40:05;;;;;;;19.35;11.32;;;0.90;60.90;;;;;;5055526;28;20028;-68
2020/12/01 06:42:36;;;;;;;25.27;13.27;;;0.90;60.80;;;;;;5042777;28;20131;-68
2020/12/01 06:45:19;;;;;;;26.23;12.48;;;0.90;60.80;;;;;;5055384;28;20504;-69
2020/12/01 06:47:47;;;;;;;24.80;13.63;;;0.90;61.00;;;;;;5054021;28;20036;-68
2020/12/01 06:50:16;;;;;;;25.92;13.00;;;0.90;61.00;;;;;;5054587;28;20017;-68
2020/12/01 06:53:00;;;;;;;25.90;13.95;;;0.90;61.20;;;;;;5053948;28;20043;-68
2020/12/01 06:55:42;;;;;;;25.45;13.55;;;0.90;61.20;;;;;;5055142;28;20032;-68
2020/12/01 06:58:20;;;;;;;24.73;12.35;;;0.90;61.20;;;;;;5049437;28;20059;-68
2020/12/01 07:00:46;;;;;;;24.23;12.25;;;0.90;61.20;;;;;;5064628;28;20394;-69
2020/12/01 07:03:22;;;;;;;29.20;13.90;;;1.00;61.30;;;;;;5055143;28;20040;-68
2020/12/01 07:05:48;;;;;;;26.90;14.05;;;1.00;61.60;;;;;;5055001;28;20467;-68
2020/12/01 07:08:22;;;;;;;26.90;13.25;;;1.00;62.30;;;;;;5053678;28;20083;-68
2020/12/01 07:10:59;;;;;;;30.75;13.70;;;1.00;61.60;;;;;;5054660;28;20079;-68
2020/12/01 07:13:50;;;;;;;24.98;12.57;;;1.00;61.50;;;;;;5053568;28;20416;-68
2020/12/01 07:16:42;;;;;;;31.33;12.57;;;1.10;61.60;;;;;;5054695;28;20056;-68
2020/12/01 07:19:19;;;;;;;27.05;12.75;;;1.10;61.60;;;;;;5054751;28;20032;-68
2020/12/01 07:21:47;;;;;;;28.45;12.35;;;1.10;61.50;;;;;;5054369;28;20071;-68
2020/12/01 07:24:38;;;;;;;23.35;12.35;;;1.20;61.60;;;;;;5054442;28;20025;-68
2020/12/01 07:27:25;;;;;;;23.70;11.95;;;1.20;61.70;;;;;;5051952;28;20018;-69
2020/12/01 07:30:16;;;;;;;27.85;13.43;;;1.20;61.60;;;;;;5069536;28;20029;-68
2020/12/01 07:33:02;;;;;;;25.33;11.98;;;1.30;61.60;;;;;;5048358;28;20132;-68
2020/12/01 07:35:44;;;;;;;22.77;11.65;;;1.40;61.60;;;;;;5053140;28;20108;-69
2020/12/01 07:38:41;;;;;;;21.90;11.57;;;1.40;61.50;;;;;;5054139;28;20033;-68
2020/12/01 07:41:24;;;;;;;37.92;16.65;;;1.40;61.50;;;;;;5053875;28;20048;-68
2020/12/01 07:43:58;;;;;;;39.72;16.40;;;1.40;61.60;;;;;;5054176;28;20469;-68
2020/12/01 07:46:24;;;;;;;34.65;16.83;;;1.50;61.90;;;;;;5054259;28;20025;-69
2020/12/01 07:49:08;;;;;;;36.67;16.92;;;1.50;62.00;;;;;;5054095;28;20021;-69
2020/12/01 07:51:34;;;;;;;35.70;17.33;;;1.50;62.10;;;;;;5054217;28;20377;-69
2020/12/01 07:54:05;;;;;;;41.47;18.52;;;1.60;62.20;;;;;;5053999;28;20035;-69
2020/12/01 07:56:31;;;;;;;41.47;18.23;;;1.60;62.20;;;;;;5052671;28;20035;-69
2020/12/01 07:59:11;;;;;;;43.80;18.50;;;1.60;62.20;;;;;;5041528;28;20112;-68
2020/12/01 08:01:37;;;;;;;38.13;18.17;;;1.60;62.30;;;;;;5052460;28;20029;-68
2020/12/01 08:04:11;;;;;;;41.83;18.27;;;1.60;62.30;;;;;;5054042;28;20108;-68
2020/12/01 08:06:37;;;;;;;36.25;18.05;;;1.70;62.30;;;;;;5060116;28;20025;-68
2020/12/01 08:09:11;;;;;;;36.20;17.52;;;1.70;62.40;;;;;;5072379;28;20028;-68
2020/12/01 08:11:41;;;;;;;35.25;17.42;;;1.70;62.50;;;;;;5073746;28;20017;-68
2020/12/01 08:14:07;;;;;;;46.22;20.90;;;1.70;62.40;;;;;;5061364;28;20037;-68
2020/12/01 08:16:33;;;;;;;54.70;23.80;;;1.80;62.40;;;;;;5053572;28;20448;-68
2020/12/01 08:18:59;;;;;;;41.30;19.67;;;1.80;62.50;;;;;;5053578;28;20466;-69
2020/12/01 08:21:31;;;;;;;37.97;18.20;;;1.80;62.60;;;;;;5053236;28;20029;-69
2020/12/01 08:24:02;;;;;;;46.25;20.95;;;1.80;62.60;;;;;;5053352;28;20025;-69
2020/12/01 08:26:36;;;;;;;37.60;18.73;;;1.80;62.60;;;;;;5053456;28;20066;-69
2020/12/01 08:29:26;;;;;;;48.20;21.23;;;1.80;62.70;;;;;;5053544;28;20351;-68
2020/12/01 08:32:31;;;;;;;42.50;18.98;;;1.90;63.60;;;;;;5033490;28;20034;-68
2020/12/01 08:35:38;;;;;;;46.88;18.17;;;2.00;63.10;;;;;;5030388;28;20045;-68
2020/12/01 08:38:26;;;;;;;40.38;19.40;;;2.10;63.00;;;;;;5053154;28;20420;-69
2020/12/01 08:41:25;;;;;;;40.72;18.75;;;2.20;63.00;;;;;;5055024;28;20075;-69
2020/12/01 08:44:28;;;;;;;45.30;19.02;;;2.30;62.80;;;;;;5048754;28;20025;-68
2020/12/01 08:46:56;;;;;;;39.85;19.25;;;2.40;62.30;;;;;;5030845;28;20533;-68
2020/12/01 08:49:24;;;;;;;47.92;22.35;;;2.50;62.00;;;;;;5043927;28;20045;-68
2020/12/01 08:51:56;;;;;;;51.20;23.65;;;2.60;61.70;;;;;;5050837;28;20891;-68
2020/12/01 08:54:26;;;;;;;52.17;23.30;;;2.70;61.40;;;;;;5038483;28;20037;-68
2020/12/01 08:57:20;;;;;;;52.92;23.95;;;2.80;61.30;;;;;;5030526;28;20036;-68
2020/12/01 08:59:53;;;;;;;52.30;22.98;;;2.90;61.20;;;;;;5030273;28;20025;-68
2020/12/01 09:02:21;;;;;;;52.00;21.88;;;2.90;61.10;;;;;;5030124;28;20140;-68
2020/12/01 09:04:57;;;;;;;61.70;24.88;;;3.00;61.00;;;;;;5030121;28;20022;-68
2020/12/01 09:07:26;;;;;;;67.10;26.27;;;3.10;61.00;;;;;;5043748;28;20064;-68
2020/12/01 09:10:07;;;;;;;70.75;25.85;;;3.20;60.80;;;;;;5037286;28;20143;-68
2020/12/01 09:12:42;;;;;;;67.00;24.55;;;3.30;60.70;;;;;;5029920;28;20029;-68
2020/12/01 09:15:28;;;;;;;68.10;27.08;;;3.40;60.50;;;;;;5030153;28;20120;-68
2020/12/01 09:23:37;;;;;;;62.85;25.50;;;3.70;59.80;;;;;;5053162;28;20103;-69
2020/12/01 09:26:23;;;;;;;65.28;25.00;;;3.80;59.50;;;;;;5050291;28;20037;-69
2020/12/01 09:28:51;;;;;;;68.32;25.77;;;3.80;59.30;;;;;;5044336;28;20486;-69
2020/12/01 09:31:18;;;;;;;69.00;27.50;;;3.80;59.10;;;;;;5046814;28;20021;-68
2020/12/01 09:33:44;;;;;;;67.18;25.63;;;3.80;58.90;;;;;;5045630;28;20367;-69
2020/12/01 09:36:18;;;;;;;57.72;25.08;;;3.80;58.80;;;;;;5050126;28;20036;-68
2020/12/01 09:38:44;;;;;;;48.15;20.30;;;3.80;58.80;;;;;;5052344;28;20086;-68
2020/12/01 09:41:19;;;;;;;44.13;20.05;;;3.80;58.90;;;;;;5050353;28;20033;-69
2020/12/01 09:44:18;;;;;;;45.95;20.10;;;3.80;59.00;;;;;;5033268;28;20030;-68
2020/12/01 09:46:41;;;;;;;59.00;23.23;;;3.80;59.10;;;;;;5047261;28;20437;-68
2020/12/01 09:49:07;;;;;;;57.92;24.58;;;3.80;59.10;;;;;;5058923;28;20025;-69
2020/12/01 09:51:33;;;;;;;60.80;26.52;;;3.80;59.10;;;;;;5047706;28;20017;-68
2020/12/01 09:56:35;;;;;;;55.28;25.08;;;3.80;59.10;;;;;;5050970;28;20078;-69
2020/12/01 09:59:39;;;;;;;68.22;31.85;;;3.90;59.30;;;;;;5051285;28;20039;-68
2020/12/01 10:07:51;;;;;;;71.55;30.77;;;4.10;59.40;;;;;;5047295;28;20083;-69
2020/12/01 10:16:32;;;;;;;74.22;32.78;;;4.40;59.40;;;;;;5056852;28;20043;-68
2020/12/01 10:34:31;;;;;;;92.65;40.20;;;5.10;58.60;;;;;;5063018;28;20044;-76
2020/12/01 10:36:57;;;;;;;89.43;38.67;;;5.20;58.50;;;;;;5042138;28;20063;-77
2020/12/01 10:39:24;;;;;;;92.18;42.30;;;5.20;58.30;;;;;;5061990;28;20389;-77
2020/12/01 10:41:50;;;;;;;90.97;40.50;;;5.30;58.10;;;;;;5062000;28;20107;-76
2020/12/01 10:44:17;;;;;;;88.50;40.72;;;5.30;58.00;;;;;;5054371;28;20431;-75
2020/12/01 10:46:50;;;;;;;104.28;42.45;;;5.30;57.70;;;;;;5055385;28;20036;-75
2020/12/01 10:49:17;;;;;;;96.95;41.20;;;5.20;57.60;;;;;;5065919;28;20047;-76
2020/12/01 10:51:46;;;;;;;89.90;38.78;;;5.20;57.60;;;;;;5061043;28;20040;-76
2020/12/01 10:54:12;;;;;;;90.40;40.47;;;5.20;57.60;;;;;;5055351;28;20118;-77
2020/12/01 10:56:37;;;;;;;97.85;42.92;;;5.20;57.60;;;;;;5055197;28;20493;-75
2020/12/01 10:59:03;;;;;;;111.00;46.78;;;5.10;57.60;;;;;;5042148;28;20044;-76
2020/12/01 11:01:33;;;;;;;114.25;47.90;;;5.10;57.70;;;;;;5047786;28;20087;-76
2020/12/01 11:03:59;;;;;;;119.82;48.63;;;5.00;57.80;;;;;;5071730;28;20031;-76
2020/12/01 11:06:25;;;;;;;107.95;42.78;;;5.00;57.90;;;;;;5058234;28;20029;-75
2020/12/01 11:08:51;;;;;;;104.70;45.30;;;5.00;58.00;;;;;;5054167;28;20379;-75
2020/12/01 11:11:18;;;;;;;109.75;46.97;;;5.00;58.20;;;;;;5056893;28;20033;-76
2020/12/01 11:13:44;;;;;;;117.70;47.03;;;5.00;58.80;;;;;;5056691;28;20508;-76
2020/12/01 11:16:10;;;;;;;100.00;42.58;;;5.00;58.30;;;;;;5061383;28;20060;-76
2020/12/01 11:18:36;;;;;;;88.43;42.58;;;5.00;58.40;;;;;;5043150;28;20033;-76
2020/12/01 11:21:02;;;;;;;83.80;38.38;;;5.00;58.40;;;;;;5056669;28;20110;-75
2020/12/01 11:23:28;;;;;;;79.47;37.05;;;5.00;58.30;;;;;;5060805;28;20041;-76
2020/12/01 11:25:53;;;;;;;70.50;34.20;;;5.00;58.30;;;;;;5074927;28;20028;-76
2020/12/01 11:28:19;;;;;;;85.25;37.35;;;5.00;58.20;;;;;;5059596;28;20024;-76
2020/12/01 11:30:45;;;;;;;75.88;33.95;;;5.10;58.30;;;;;;5051339;28;20482;-75
2020/12/01 11:33:11;;;;;;;87.03;39.00;;;5.10;58.40;;;;;;5054226;28;20051;-75
2020/12/01 11:35:37;;;;;;;73.78;34.17;;;5.10;58.40;;;;;;5054044;28;20033;-75
2020/12/01 11:38:02;;;;;;;84.00;36.20;;;5.20;58.60;;;;;;5069032;28;20115;-75
2020/12/01 11:40:28;;;;;;;80.53;38.72;;;5.20;58.60;;;;;;5058640;28;20036;-76
2020/12/01 11:42:54;;;;;;;83.15;36.50;;;5.30;58.50;;;;;;5054381;28;20033;-75
2020/12/01 11:45:20;;;;;;;87.28;39.63;;;5.40;58.60;;;;;;5054759;28;20043;-76
2020/12/01 11:47:46;;;;;;;77.45;37.00;;;5.50;58.60;;;;;;5054448;28;20025;-76
2020/12/01 11:50:12;;;;;;;73.93;31.27;;;5.60;58.50;;;;;;5053952;28;20036;-76
2020/12/01 11:52:38;;;;;;;54.92;27.83;;;5.60;58.30;;;;;;5053423;28;20147;-75
2020/12/01 11:55:06;;;;;;;75.35;32.97;;;5.70;58.20;;;;;;5053096;28;20025;-75
2020/12/01 11:57:32;;;;;;;54.58;28.17;;;5.80;58.20;;;;;;5053887;28;20075;-76
2020/12/01 11:59:58;;;;;;;63.08;30.77;;;5.80;58.00;;;;;;5041771;28;20071;-76
2020/12/01 12:02:24;;;;;;;53.92;26.95;;;5.90;58.00;;;;;;5053177;28;20486;-76
2020/12/01 12:04:50;;;;;;;51.22;24.10;;;5.90;57.90;;;;;;5054443;28;20025;-76
2020/12/01 12:07:15;;;;;;;46.78;20.25;;;6.00;57.60;;;;;;5053192;28;20027;-75
2020/12/01 12:09:41;;;;;;;45.95;20.10;;;6.00;57.30;;;;;;5052904;28;20473;-76
2020/12/01 12:12:07;;;;;;;31.65;16.48;;;6.00;57.00;;;;;;5054265;28;20021;-76
2020/12/01 12:14:33;;;;;;;36.40;19.20;;;6.10;56.90;;;;;;5054334;28;20025;-75
2020/12/01 12:16:59;;;;;;;35.50;17.83;;;6.10;56.80;;;;;;5054257;28;20025;-75
2020/12/01 12:19:24;;;;;;;38.30;18.33;;;6.10;56.60;;;;;;5054251;28;20075;-75
2020/12/01 12:21:50;;;;;;;46.72;17.75;;;6.10;56.60;;;;;;5053525;28;20162;-76
2020/12/01 12:24:16;;;;;;;31.42;16.60;;;6.10;56.30;;;;;;5053297;28;20055;-74
2020/12/01 12:26:43;;;;;;;29.13;15.93;;;6.10;55.70;;;;;;5061542;28;20037;-75
2020/12/01 12:29:09;;;;;;;21.48;13.63;;;6.00;55.50;;;;;;5058288;28;20031;-76
2020/12/01 12:31:35;;;;;;;30.55;15.25;;;5.90;55.40;;;;;;5054244;28;20024;-75
2020/12/01 12:34:00;;;;;;;30.38;14.52;;;5.80;55.30;;;;;;5053179;28;20035;-75
2020/12/01 12:36:26;;;;;;;29.77;17.08;;;5.70;55.30;;;;;;5044491;28;20445;-76
2020/12/01 12:38:53;;;;;;;44.17;17.17;;;5.70;55.50;;;;;;5043635;28;20479;-76
2020/12/01 12:41:22;;;;;;;34.88;15.05;;;5.60;55.60;;;;;;5043179;28;20032;-76
2020/12/01 12:43:48;;;;;;;29.67;15.13;;;5.50;55.70;;;;;;5053031;28;20036;-75
2020/12/01 12:46:13;;;;;;;32.33;16.15;;;5.50;55.90;;;;;;5047876;28;20021;-75
2020/12/01 12:48:39;;;;;;;31.08;15.68;;;5.40;56.00;;;;;;5065290;28;20028;-75
2020/12/01 12:51:05;;;;;;;32.50;18.00;;;5.40;56.20;;;;;;5053166;28;20021;-75
2020/12/01 12:53:31;;;;;;;29.38;17.70;;;5.40;56.20;;;;;;5043927;28;20371;-75
2020/12/01 12:55:56;;;;;;;33.42;18.23;;;5.30;56.20;;;;;;5053103;28;20053;-76
2020/12/01 12:58:23;;;;;;;29.27;17.15;;;5.40;56.20;;;;;;5051171;28;20021;-76
2020/12/01 13:00:49;;;;;;;34.17;17.90;;;5.30;56.30;;;;;;5048219;28;20100;-75
2020/12/01 13:03:15;;;;;;;38.20;18.85;;;5.30;56.30;;;;;;5051074;28;20477;-76
2020/12/01 13:05:41;;;;;;;31.63;18.25;;;5.30;56.40;;;;;;5051065;28;20095;-76
2020/12/01 13:08:07;;;;;;;30.92;17.98;;;5.30;56.50;;;;;;5044598;28;20366;-75
2020/12/01 13:10:34;;;;;;;31.65;17.65;;;5.40;56.50;;;;;;5047980;28;20044;-75
2020/12/01 13:13:00;;;;;;;42.78;21.35;;;5.40;56.60;;;;;;5047904;28;20037;-75
2020/12/01 13:15:27;;;;;;;36.28;20.67;;;5.40;56.70;;;;;;5041054;28;20032;-75
2020/12/01 13:17:53;;;;;;;42.92;22.75;;;5.40;56.70;;;;;;5049386;28;20028;-76
2020/12/01 13:20:23;;;;;;;38.72;20.92;;;5.40;56.60;;;;;;5056804;28;20096;-76
2020/12/01 13:22:50;;;;;;;47.47;23.25;;;5.50;56.60;;;;;;5052072;28;20037;-75
2020/12/01 13:25:16;;;;;;;41.40;22.30;;;5.50;56.60;;;;;;5044088;28;20032;-75
2020/12/01 13:27:42;;;;;;;41.05;22.35;;;5.60;56.70;;;;;;5060928;28;20359;-75
2020/12/01 13:30:09;;;;;;;40.45;23.40;;;5.60;56.50;;;;;;5052773;28;20036;-75
2020/12/01 13:32:35;;;;;;;39.15;20.40;;;5.60;56.50;;;;;;5048958;28;20032;-75
2020/12/01 13:35:01;;;;;;;50.90;23.70;;;5.60;56.40;;;;;;5052810;28;20477;-75
2020/12/01 13:37:27;;;;;;;39.60;23.13;;;5.70;56.40;;;;;;5051711;28;20040;-75